createdAt,value
2023-03-28T00:00:10.287Z,81.98
2023-03-28T00:01:10.368Z,50.38
2023-03-28T00:02:10.422Z,98.96
2023-03-28T00:03:10.451Z,115.49
2023-03-28T00:04:10.548Z,86.63
2023-03-28T00:05:10.578Z,72.23
2023-03-28T00:06:10.726Z,92.37
2023-03-28T00:07:10.696Z,84.30
2023-03-28T00:08:10.752Z,88.65
2023-03-28T00:09:10.800Z,87.24
2023-03-28T00:10:10.878Z,90.89
2023-03-28T00:11:10.934Z,77.35
2023-03-28T00:12:10.996Z,87.19
2023-03-28T00:13:11.065Z,65.09
2023-03-28T00:14:11.112Z,104.41
2023-03-28T00:15:11.168Z,109.80
2023-03-28T00:16:11.280Z,85.64
2023-03-28T00:17:11.292Z,88.54
2023-03-28T00:18:11.348Z,104.32
2023-03-28T00:19:11.402Z,94.90
2023-03-28T00:20:11.444Z,87.86
2023-03-28T00:21:11.525Z,99.30
2023-03-28T00:22:11.565Z,97.95
2023-03-28T00:23:11.646Z,62.78
2023-03-28T00:24:11.705Z,82.91
2023-03-28T00:25:11.763Z,109.86
2023-03-28T00:26:11.812Z,112.06
2023-03-28T00:27:11.888Z,83.21
2023-03-28T00:28:11.951Z,55.33
2023-03-28T00:29:12.015Z,62.96
2023-03-28T00:30:12.053Z,77.01
2023-03-28T00:31:12.174Z,80.02
2023-03-28T00:32:12.187Z,92.91
2023-03-28T00:33:12.264Z,103.48
2023-03-28T00:34:12.304Z,101.89
2023-03-28T00:35:12.360Z,88.11
2023-03-28T00:36:12.443Z,103.67
2023-03-28T00:37:12.473Z,90.75
2023-03-28T00:38:12.539Z,84.13
2023-03-28T00:39:12.608Z,93.53
2023-03-28T00:40:12.661Z,99.84
2023-03-28T00:41:12.732Z,72.81
2023-03-28T00:42:12.774Z,105.85
2023-03-28T00:43:12.852Z,83.71
2023-03-28T00:44:12.901Z,71.27
2023-03-28T00:45:12.946Z,78.12
2023-03-28T00:46:13.205Z,52.66
2023-03-28T00:47:13.079Z,83.21
2023-03-28T00:48:14.203Z,85.23
2023-03-28T00:49:13.193Z,109.17
2023-03-28T00:50:13.266Z,98.30
2023-03-28T00:51:13.298Z,91.11
2023-03-28T00:52:13.360Z,99.67
2023-03-28T00:53:13.408Z,77.89
2023-03-28T00:54:13.481Z,48.72
2023-03-28T00:55:13.560Z,72.76
2023-03-28T00:56:13.692Z,84.20
2023-03-28T00:57:13.752Z,92.32
2023-03-28T00:58:13.731Z,97.09
2023-03-28T00:59:13.786Z,81.80
2023-03-28T01:00:13.843Z,94.13
2023-03-28T01:01:13.924Z,85.80
2023-03-28T01:02:13.974Z,62.74
2023-03-28T01:03:14.096Z,90.04
2023-03-28T01:04:14.083Z,94.02
2023-03-28T01:05:14.132Z,88.37
2023-03-28T01:06:14.206Z,86.36
2023-03-28T01:07:14.269Z,119.78
2023-03-28T01:08:14.322Z,100.89
2023-03-28T01:09:14.376Z,93.21
2023-03-28T01:10:14.438Z,111.11
2023-03-28T01:11:14.533Z,108.23
2023-03-28T01:12:14.562Z,100.27
2023-03-28T01:13:14.679Z,87.99
2023-03-28T01:14:14.689Z,62.77
2023-03-28T01:15:14.746Z,58.85
2023-03-28T01:16:14.853Z,102.65
2023-03-28T01:17:14.891Z,113.91
2023-03-28T01:18:14.953Z,84.61
2023-03-28T01:19:15.006Z,96.59
2023-03-28T01:20:15.079Z,52.47
2023-03-28T01:21:15.126Z,51.52
2023-03-28T01:22:15.193Z,90.02
2023-03-28T01:23:15.277Z,95.07
2023-03-28T01:24:15.311Z,81.46
2023-03-28T01:25:15.374Z,64.77
2023-03-28T01:26:15.435Z,81.26
2023-03-28T01:27:15.481Z,62.73
2023-03-28T01:28:15.554Z,72.44
2023-03-28T01:29:15.624Z,99.80
2023-03-28T01:30:15.676Z,67.36
2023-03-28T01:31:15.790Z,85.68
2023-03-28T01:32:15.789Z,60.01
2023-03-28T01:33:15.848Z,70.79
2023-03-28T01:34:15.926Z,74.11
2023-03-28T01:35:16.070Z,94.81
2023-03-28T01:36:33.997Z,89.25
2023-03-28T01:37:17.045Z,89.50
2023-03-28T01:38:16.031Z,89.09
2023-03-28T01:39:16.045Z,75.09
2023-03-28T01:40:16.014Z,72.00
2023-03-28T01:41:16.002Z,50.59
2023-03-28T01:42:16.001Z,82.79
2023-03-28T01:43:15.991Z,75.91
2023-03-28T01:44:15.976Z,76.04
2023-03-28T01:45:16.009Z,85.59
2023-03-28T01:46:16.153Z,56.40
2023-03-28T01:47:16.134Z,52.55
2023-03-28T01:48:16.203Z,53.14
2023-03-28T01:49:16.281Z,38.74
2023-03-28T01:50:16.314Z,72.57
2023-03-28T01:51:16.407Z,59.61
2023-03-28T01:52:16.456Z,74.89
2023-03-28T01:53:16.498Z,60.78
2023-03-28T01:54:16.574Z,71.39
2023-03-28T01:55:16.630Z,59.69
2023-03-28T01:56:16.767Z,67.48
2023-03-28T01:57:16.853Z,40.61
2023-03-28T01:58:16.857Z,71.45
2023-03-28T01:59:16.887Z,71.10
2023-03-28T02:00:16.946Z,48.53
2023-03-28T02:01:17.084Z,36.30
2023-03-28T02:02:17.111Z,55.84
2023-03-28T02:03:17.358Z,60.87
2023-03-28T02:04:20.859Z,81.66
2023-03-28T02:05:17.197Z,67.48
2023-03-28T02:06:17.207Z,25.61
2023-03-28T02:07:17.180Z,43.27
2023-03-28T02:08:17.177Z,73.88
2023-03-28T02:09:17.190Z,58.46
2023-03-28T02:10:17.180Z,50.01
2023-03-28T02:11:17.170Z,33.01
2023-03-28T02:12:17.160Z,35.82
2023-03-28T02:13:17.164Z,31.96
2023-03-28T02:14:17.156Z,45.44
2023-03-28T02:15:17.129Z,56.89
2023-03-28T02:16:17.140Z,59.99
2023-03-28T02:17:17.135Z,71.62
2023-03-28T02:18:17.150Z,77.23
2023-03-28T02:19:17.122Z,61.73
2023-03-28T02:20:17.111Z,49.76
2023-03-28T02:21:17.111Z,76.94
2023-03-28T02:22:17.097Z,67.68
2023-03-28T02:23:17.094Z,68.89
2023-03-28T02:24:17.091Z,78.48
2023-03-28T02:25:17.083Z,68.03
2023-03-28T02:26:17.147Z,58.81
2023-03-28T02:27:17.222Z,68.39
2023-03-28T02:28:17.296Z,84.79
2023-03-28T02:29:17.352Z,91.59
2023-03-28T02:30:17.388Z,90.22
2023-03-28T02:31:17.485Z,75.57
2023-03-28T02:32:17.545Z,72.64
2023-03-28T02:33:17.577Z,70.34
2023-03-28T02:34:17.658Z,91.09
2023-03-28T02:35:17.740Z,66.07
2023-03-28T02:36:17.789Z,85.46
2023-03-28T02:37:17.843Z,59.83
2023-03-28T02:38:17.912Z,76.62
2023-03-28T02:39:18.004Z,84.31
2023-03-28T02:40:18.043Z,118.46
2023-03-28T02:41:18.113Z,109.21
2023-03-28T02:42:18.196Z,100.82
2023-03-28T02:43:18.241Z,55.21
2023-03-28T02:44:21.112Z,70.12
2023-03-28T02:45:18.280Z,67.36
2023-03-28T02:46:18.392Z,102.76
2023-03-28T02:47:18.291Z,92.89
2023-03-28T02:48:18.289Z,95.89
2023-03-28T02:49:18.287Z,89.33
2023-03-28T02:50:18.260Z,67.23
2023-03-28T02:51:18.253Z,81.41
2023-03-28T02:52:18.251Z,66.18
2023-03-28T02:53:18.236Z,76.17
2023-03-28T02:54:18.289Z,65.97
2023-03-28T02:55:18.235Z,77.67
2023-03-28T02:56:18.238Z,71.22
2023-03-28T02:57:18.420Z,57.36
2023-03-28T02:58:18.222Z,72.56
2023-03-28T02:59:18.252Z,65.51
2023-03-28T03:00:18.201Z,59.47
2023-03-28T03:01:18.254Z,59.46
2023-03-28T03:02:18.192Z,68.96
2023-03-28T03:03:18.203Z,47.30
2023-03-28T03:04:18.168Z,71.68
2023-03-28T03:05:18.174Z,71.57
2023-03-28T03:06:18.165Z,58.58
2023-03-28T03:07:18.161Z,70.29
2023-03-28T03:08:18.137Z,68.83
2023-03-28T03:09:18.132Z,60.15
2023-03-28T03:10:18.133Z,68.91
2023-03-28T03:11:18.120Z,61.27
2023-03-28T03:12:18.118Z,65.74
2023-03-28T03:13:18.117Z,73.21
2023-03-28T03:14:18.104Z,77.67
2023-03-28T03:15:18.089Z,76.80
2023-03-28T03:16:18.157Z,45.40
2023-03-28T03:17:18.101Z,48.03
2023-03-28T03:18:18.073Z,53.10
2023-03-28T03:19:18.101Z,49.71
2023-03-28T03:20:18.162Z,72.88
2023-03-28T03:21:18.215Z,101.39
2023-03-28T03:22:21.064Z,104.91
2023-03-28T03:23:18.284Z,102.90
2023-03-28T03:24:18.255Z,68.26
2023-03-28T03:25:18.268Z,69.38
2023-03-28T03:26:18.260Z,44.28
2023-03-28T03:27:18.230Z,55.76
2023-03-28T03:28:18.221Z,49.56
2023-03-28T03:29:18.231Z,76.93
2023-03-28T03:30:18.226Z,78.82
2023-03-28T03:31:18.211Z,77.49
2023-03-28T03:32:18.237Z,85.72
2023-03-28T03:33:18.204Z,95.13
2023-03-28T03:34:18.216Z,98.33
2023-03-28T03:35:18.210Z,80.46
2023-03-28T03:36:18.184Z,82.25
2023-03-28T03:37:18.165Z,97.06
2023-03-28T03:38:18.170Z,90.32
2023-03-28T03:39:18.174Z,102.92
2023-03-28T03:40:18.164Z,86.58
2023-03-28T03:41:18.133Z,91.97
2023-03-28T03:42:18.142Z,117.31
2023-03-28T03:43:18.133Z,103.91
2023-03-28T03:44:18.131Z,94.36
2023-03-28T03:45:18.121Z,92.41
2023-03-28T03:46:18.144Z,92.69
2023-03-28T03:47:18.110Z,89.00
2023-03-28T03:48:18.094Z,76.49
2023-03-28T03:49:18.086Z,80.06
2023-03-28T03:50:18.073Z,82.11
2023-03-28T03:51:18.094Z,88.61
2023-03-28T03:52:18.080Z,105.30
2023-03-28T03:53:18.077Z,120.87
2023-03-28T03:54:18.082Z,131.72
2023-03-28T03:55:18.068Z,130.98
2023-03-28T03:56:18.048Z,103.95
2023-03-28T03:57:18.090Z,65.19
2023-03-28T03:58:18.042Z,55.62
2023-03-28T03:59:18.149Z,91.20
2023-03-28T04:00:18.213Z,79.99
2023-03-28T04:01:18.286Z,120.78
2023-03-28T04:02:18.363Z,139.90
2023-03-28T04:03:24.521Z,123.39
2023-03-28T04:04:19.454Z,123.49
2023-03-28T04:05:18.374Z,90.84
2023-03-28T04:06:18.368Z,94.00
2023-03-28T04:07:18.360Z,85.60
2023-03-28T04:08:18.374Z,83.96
2023-03-28T04:09:18.362Z,84.70
2023-03-28T04:10:18.399Z,129.51
2023-03-28T04:11:18.345Z,144.26
2023-03-28T04:12:18.385Z,135.70
2023-03-28T04:13:18.453Z,107.99
2023-03-28T04:14:18.516Z,93.72
2023-03-28T04:15:18.577Z,104.19
2023-03-28T04:16:18.708Z,115.10
2023-03-28T04:17:18.719Z,97.60
2023-03-28T04:18:18.796Z,113.81
2023-03-28T04:19:18.835Z,110.66
2023-03-28T04:20:18.888Z,112.05
2023-03-28T04:21:18.972Z,92.56
2023-03-28T04:22:19.044Z,95.02
2023-03-28T04:23:19.102Z,90.66
2023-03-28T04:24:19.168Z,105.90
2023-03-28T04:25:19.219Z,119.81
2023-03-28T04:26:19.297Z,122.89
2023-03-28T04:27:19.359Z,131.86
2023-03-28T04:28:19.408Z,96.60
2023-03-28T04:29:19.489Z,68.42
2023-03-28T04:30:19.555Z,73.44
2023-03-28T04:31:19.686Z,78.15
2023-03-28T04:32:19.675Z,91.35
2023-03-28T04:33:19.725Z,116.63
2023-03-28T04:34:19.788Z,93.85
2023-03-28T04:35:19.879Z,107.89
2023-03-28T04:36:19.888Z,120.76
2023-03-28T04:37:19.962Z,126.18
2023-03-28T04:38:20.772Z,113.97
2023-03-28T04:39:20.070Z,91.49
2023-03-28T04:40:20.127Z,103.85
2023-03-28T04:41:20.190Z,93.41
2023-03-28T04:42:20.221Z,111.27
2023-03-28T04:43:20.269Z,110.26
2023-03-28T04:44:20.331Z,120.25
2023-03-28T04:45:20.394Z,113.41
2023-03-28T04:46:20.483Z,91.63
2023-03-28T04:47:20.518Z,81.51
2023-03-28T04:48:20.571Z,92.05
2023-03-28T04:49:20.645Z,73.57
2023-03-28T04:50:20.715Z,87.88
2023-03-28T04:51:20.751Z,107.90
2023-03-28T04:52:20.829Z,123.54
2023-03-28T04:53:20.880Z,126.72
2023-03-28T04:54:20.939Z,114.07
2023-03-28T04:55:20.994Z,110.70
2023-03-28T04:56:21.062Z,96.19
2023-03-28T04:57:21.151Z,79.56
2023-03-28T04:58:21.167Z,95.11
2023-03-28T04:59:21.237Z,120.10
2023-03-28T05:00:21.277Z,132.06
2023-03-28T05:01:21.344Z,120.85
2023-03-28T05:02:21.410Z,127.69
2023-03-28T05:03:21.514Z,122.79
2023-03-28T05:04:21.455Z,134.04
2023-03-28T05:05:21.501Z,139.71
2023-03-28T05:06:21.563Z,125.20
2023-03-28T05:07:21.660Z,138.02
2023-03-28T05:08:21.694Z,151.62
2023-03-28T05:09:21.746Z,149.36
2023-03-28T05:10:21.819Z,153.80
2023-03-28T05:11:21.878Z,153.69
2023-03-28T05:12:21.960Z,160.16
2023-03-28T05:13:22.016Z,155.09
2023-03-28T05:14:22.085Z,167.12
2023-03-28T05:15:23.176Z,174.14
2023-03-28T05:16:22.225Z,162.81
2023-03-28T05:17:22.292Z,164.80
2023-03-28T05:18:22.350Z,163.20
2023-03-28T05:19:22.413Z,157.02
2023-03-28T05:20:22.502Z,159.71
2023-03-28T05:21:22.544Z,150.56
2023-03-28T05:22:22.610Z,178.35
2023-03-28T05:23:22.685Z,193.54
2023-03-28T05:24:22.731Z,190.17
2023-03-28T05:25:22.808Z,180.31
2023-03-28T05:26:22.905Z,120.71
2023-03-28T05:27:22.910Z,155.89
2023-03-28T05:28:22.963Z,162.68
2023-03-28T05:29:23.054Z,183.43
2023-03-28T05:30:23.123Z,192.56
2023-03-28T05:31:23.284Z,173.89
2023-03-28T05:32:23.413Z,206.02
2023-03-28T05:33:23.281Z,172.02
2023-03-28T05:34:23.331Z,198.27
2023-03-28T05:35:23.411Z,206.89
2023-03-28T05:36:23.460Z,231.70
2023-03-28T05:37:23.760Z,253.49
2023-03-28T05:38:23.510Z,255.35
2023-03-28T05:39:23.498Z,263.31
2023-03-28T05:40:23.498Z,280.84
2023-03-28T05:41:23.784Z,322.17
2023-03-28T05:42:23.483Z,340.41
2023-03-28T05:43:23.537Z,303.15
2023-03-28T05:44:23.515Z,278.51
2023-03-28T05:45:23.510Z,262.53
2023-03-28T05:46:23.617Z,250.00
2023-03-28T05:47:23.602Z,251.98
2023-03-28T05:48:23.576Z,250.00
2023-03-28T05:49:23.638Z,269.10
2023-03-28T05:50:23.637Z,316.82
2023-03-28T05:51:23.666Z,305.40
2023-03-28T05:52:23.658Z,266.89
2023-03-28T05:53:23.680Z,243.74
2023-03-28T05:54:23.690Z,232.49
2023-03-28T05:55:23.711Z,246.04
2023-03-28T05:56:23.721Z,253.67
2023-03-28T05:57:23.815Z,247.69
2023-03-28T05:58:23.754Z,247.67
2023-03-28T05:59:23.769Z,238.51
2023-03-28T06:00:23.767Z,232.23
2023-03-28T06:01:23.790Z,226.89
2023-03-28T06:02:23.847Z,224.93
2023-03-28T06:03:23.779Z,222.84
2023-03-28T06:04:23.866Z,219.45
2023-03-28T06:05:23.787Z,222.57
2023-03-28T06:06:23.805Z,221.32
2023-03-28T06:07:35.240Z,213.70
2023-03-28T06:08:24.794Z,213.80
2023-03-28T06:09:23.795Z,213.27
2023-03-28T06:10:23.779Z,207.43
2023-03-28T06:11:23.756Z,206.18
2023-03-28T06:12:23.771Z,201.88
2023-03-28T06:13:23.750Z,204.04
2023-03-28T06:14:23.751Z,207.36
2023-03-28T06:15:23.750Z,206.12
2023-03-28T06:16:30.336Z,204.10
2023-03-28T06:17:24.719Z,204.30
2023-03-28T06:18:23.731Z,204.89
2023-03-28T06:19:23.748Z,203.76
2023-03-28T06:20:23.703Z,200.40
2023-03-28T06:21:23.713Z,196.10
2023-03-28T06:22:23.685Z,196.58
2023-03-28T06:23:23.674Z,201.67
2023-03-28T06:24:23.667Z,203.20
2023-03-28T06:25:23.674Z,202.44
2023-03-28T06:26:23.653Z,201.00
2023-03-28T06:27:23.640Z,204.47
2023-03-28T06:28:23.639Z,200.34
2023-03-28T06:29:23.644Z,193.67
2023-03-28T06:30:23.638Z,196.15
2023-03-28T06:31:23.639Z,197.74
2023-03-28T06:32:23.646Z,186.98
2023-03-28T06:33:23.767Z,182.29
2023-03-28T06:34:23.613Z,182.43
2023-03-28T06:35:23.592Z,176.21
2023-03-28T06:36:23.592Z,186.01
2023-03-28T06:37:23.799Z,195.58
2023-03-28T06:38:23.594Z,192.97
2023-03-28T06:39:23.590Z,189.56
2023-03-28T06:40:23.564Z,187.63
2023-03-28T06:41:23.566Z,187.71
2023-03-28T06:42:23.574Z,202.70
2023-03-28T06:43:23.544Z,225.30
2023-03-28T06:44:23.561Z,206.24
2023-03-28T06:45:23.592Z,200.21
2023-03-28T06:46:23.837Z,200.22
2023-03-28T06:47:23.692Z,201.48
2023-03-28T06:48:23.688Z,201.82
2023-03-28T06:49:23.721Z,204.42
2023-03-28T06:50:23.749Z,202.19
2023-03-28T06:51:23.766Z,200.20
2023-03-28T06:52:23.811Z,201.95
2023-03-28T06:53:23.789Z,202.73
2023-03-28T06:54:23.795Z,196.52
2023-03-28T06:55:23.827Z,188.35
2023-03-28T06:56:23.832Z,188.80
2023-03-28T06:57:23.993Z,187.92
2023-03-28T06:58:23.883Z,184.43
2023-03-28T06:59:24.282Z,185.11
2023-03-28T07:00:23.925Z,187.51
2023-03-28T07:01:23.983Z,189.75
2023-03-28T07:02:24.104Z,188.53
2023-03-28T07:03:24.185Z,192.38
2023-03-28T07:04:24.107Z,184.68
2023-03-28T07:05:24.151Z,185.42
2023-03-28T07:06:24.210Z,184.44
2023-03-28T07:07:24.266Z,183.45
2023-03-28T07:08:24.294Z,182.90
2023-03-28T07:09:24.340Z,169.96
2023-03-28T07:10:24.395Z,172.91
2023-03-28T07:11:24.454Z,181.35
2023-03-28T07:12:24.789Z,178.98
2023-03-28T07:13:24.580Z,178.64
2023-03-28T07:14:24.681Z,181.52
2023-03-28T07:15:24.726Z,200.47
2023-03-28T07:16:24.814Z,227.47
2023-03-28T07:17:24.861Z,214.23
2023-03-28T07:18:24.925Z,204.17
2023-03-28T07:19:24.960Z,195.76
2023-03-28T07:20:25.060Z,209.31
2023-03-28T07:21:25.088Z,215.59
2023-03-28T07:22:25.141Z,208.35
2023-03-28T07:23:25.208Z,199.93
2023-03-28T07:24:25.249Z,197.65
2023-03-28T07:25:25.794Z,192.43
2023-03-28T07:26:25.408Z,180.85
2023-03-28T07:27:25.464Z,152.42
2023-03-28T07:28:25.489Z,122.87
2023-03-28T07:29:25.515Z,82.08
2023-03-28T07:30:25.819Z,57.36
2023-03-28T07:31:25.591Z,43.70
2023-03-28T07:32:27.624Z,28.69
2023-03-28T07:33:35.320Z,29.29
2023-03-28T07:34:26.561Z,26.59
2023-03-28T07:35:25.549Z,28.70
2023-03-28T07:36:25.532Z,33.38
2023-03-28T07:37:25.529Z,24.38
2023-03-28T07:38:25.508Z,38.36
2023-03-28T07:39:25.520Z,59.04
2023-03-28T07:40:25.506Z,84.69
2023-03-28T07:41:25.510Z,103.03
2023-03-28T07:42:25.494Z,101.43
2023-03-28T07:43:25.500Z,113.11
2023-03-28T07:44:25.472Z,109.37
2023-03-28T07:45:25.486Z,122.56
2023-03-28T07:46:25.549Z,125.52
2023-03-28T07:47:25.488Z,123.18
2023-03-28T07:48:25.815Z,73.84
2023-03-28T07:49:25.432Z,103.28
2023-03-28T07:50:25.505Z,116.58
2023-03-28T07:51:25.891Z,82.09
2023-03-28T07:52:25.421Z,85.47
2023-03-28T07:53:25.419Z,88.71
2023-03-28T07:54:25.402Z,92.92
2023-03-28T07:55:25.398Z,88.50
2023-03-28T07:56:25.400Z,102.37
2023-03-28T07:57:25.454Z,76.01
2023-03-28T07:58:25.365Z,51.99
2023-03-28T07:59:25.380Z,54.07
2023-03-28T08:00:25.349Z,48.15
2023-03-28T08:01:25.355Z,36.10
2023-03-28T08:02:25.484Z,75.21
2023-03-28T08:03:25.383Z,95.88
2023-03-28T08:04:25.331Z,102.37
2023-03-28T08:05:25.365Z,105.37
2023-03-28T08:06:32.410Z,102.83
2023-03-28T08:07:26.323Z,103.01
2023-03-28T08:08:25.298Z,102.95
2023-03-28T08:09:25.291Z,80.46
2023-03-28T08:10:25.321Z,59.92
2023-03-28T08:11:25.293Z,88.42
2023-03-28T08:12:25.288Z,95.62
2023-03-28T08:13:25.262Z,71.68
2023-03-28T08:14:25.264Z,53.04
2023-03-28T08:15:25.242Z,60.43
2023-03-28T08:16:25.328Z,66.40
2023-03-28T08:17:25.293Z,73.44
2023-03-28T08:18:25.239Z,93.09
2023-03-28T08:19:25.222Z,97.37
2023-03-28T08:20:25.246Z,90.28
2023-03-28T08:21:26.808Z,89.73
2023-03-28T08:22:25.335Z,2.85
2023-03-28T08:23:25.328Z,0.00
2023-03-28T08:24:34.956Z,0.00
2023-03-28T08:25:26.325Z,0.00
2023-03-28T08:26:25.305Z,0.00
2023-03-28T08:27:25.277Z,0.00
2023-03-28T08:28:25.292Z,0.00
2023-03-28T08:29:25.281Z,0.00
2023-03-28T08:30:25.281Z,0.00
2023-03-28T08:31:25.288Z,0.00
2023-03-28T08:32:25.279Z,0.00
2023-03-28T08:33:25.233Z,0.00
2023-03-28T08:34:25.234Z,0.28
2023-03-28T08:35:25.233Z,0.00
2023-03-28T08:36:25.296Z,26.97
2023-03-28T08:37:25.363Z,32.56
2023-03-28T08:38:25.414Z,48.24
2023-03-28T08:39:25.832Z,54.20
2023-03-28T08:40:25.513Z,86.86
2023-03-28T08:41:25.548Z,88.53
2023-03-28T08:42:25.564Z,112.24
2023-03-28T08:43:25.612Z,101.40
2023-03-28T08:44:25.629Z,116.00
2023-03-28T08:45:25.634Z,125.63
2023-03-28T08:46:25.688Z,125.92
2023-03-28T08:47:25.688Z,132.00
2023-03-28T08:48:25.659Z,140.21
2023-03-28T08:49:25.701Z,142.54
2023-03-28T08:50:25.682Z,130.84
2023-03-28T08:51:25.654Z,141.31
2023-03-28T08:52:25.682Z,147.10
2023-03-28T08:53:25.685Z,148.68
2023-03-28T08:54:25.826Z,157.98
2023-03-28T08:55:25.672Z,161.84
2023-03-28T08:56:25.723Z,156.87
2023-03-28T08:57:25.766Z,152.04
2023-03-28T08:58:25.741Z,158.18
2023-03-28T08:59:25.750Z,164.49
2023-03-28T09:00:25.768Z,164.27
2023-03-28T09:01:25.825Z,171.39
2023-03-28T09:02:25.915Z,176.61
2023-03-28T09:03:25.908Z,181.74
2023-03-28T09:04:25.976Z,185.50
2023-03-28T09:05:25.941Z,183.22
2023-03-28T09:06:25.965Z,178.24
2023-03-28T09:07:26.000Z,178.86
2023-03-28T09:08:26.054Z,181.69
2023-03-28T09:09:26.049Z,182.68
2023-03-28T09:10:26.054Z,182.94
2023-03-28T09:11:26.093Z,182.18
2023-03-28T09:12:26.138Z,180.72
2023-03-28T09:13:26.161Z,178.40
2023-03-28T09:14:26.194Z,193.02
2023-03-28T09:15:26.236Z,221.60
2023-03-28T09:16:26.340Z,213.05
2023-03-28T09:17:26.394Z,196.47
2023-03-28T09:18:26.408Z,190.29
2023-03-28T09:19:31.234Z,190.23
2023-03-28T09:20:27.475Z,181.26
2023-03-28T09:21:26.452Z,173.24
2023-03-28T09:22:26.444Z,160.64
2023-03-28T09:23:26.432Z,176.80
2023-03-28T09:24:26.447Z,180.81
2023-03-28T09:25:26.455Z,175.90
2023-03-28T09:26:26.418Z,149.62
2023-03-28T09:27:26.426Z,100.56
2023-03-28T09:28:26.394Z,58.63
2023-03-28T09:29:26.890Z,48.56
2023-03-28T09:30:26.438Z,61.68
2023-03-28T09:31:27.233Z,65.80
2023-03-28T09:32:26.546Z,84.92
2023-03-28T09:33:26.560Z,109.91
2023-03-28T09:34:26.844Z,119.69
2023-03-28T09:35:26.593Z,116.46
2023-03-28T09:36:31.850Z,127.64
2023-03-28T09:37:27.610Z,127.72
2023-03-28T09:38:26.603Z,126.66
2023-03-28T09:39:26.614Z,128.42
2023-03-28T09:40:26.658Z,127.71
2023-03-28T09:41:26.577Z,130.87
2023-03-28T09:42:26.573Z,129.59
2023-03-28T09:43:26.607Z,135.85
2023-03-28T09:44:26.867Z,139.43
2023-03-28T09:45:26.547Z,144.31
2023-03-28T09:46:26.578Z,137.63
2023-03-28T09:47:26.622Z,142.85
2023-03-28T09:48:26.622Z,148.55
2023-03-28T09:49:26.554Z,149.23
2023-03-28T09:50:26.874Z,149.84
2023-03-28T09:51:26.534Z,148.58
2023-03-28T09:52:26.532Z,147.46
2023-03-28T09:53:26.536Z,150.10
2023-03-28T09:54:26.553Z,149.88
2023-03-28T09:55:26.604Z,146.33
2023-03-28T09:56:26.667Z,150.01
2023-03-28T09:57:26.807Z,148.86
2023-03-28T09:58:26.814Z,159.81
2023-03-28T09:59:28.493Z,172.73
2023-03-28T10:00:27.348Z,165.84
2023-03-28T10:01:27.000Z,152.26
2023-03-28T10:02:27.025Z,85.75
2023-03-28T10:03:27.011Z,78.98
2023-03-28T10:04:27.102Z,51.48
2023-03-28T10:05:27.356Z,85.69
2023-03-28T10:06:27.069Z,76.91
2023-03-28T10:07:27.037Z,52.26
2023-03-28T10:08:27.043Z,93.22
2023-03-28T10:09:27.060Z,65.43
2023-03-28T10:10:27.376Z,100.73
2023-03-28T10:11:27.051Z,79.13
2023-03-28T10:12:27.027Z,64.06
2023-03-28T10:13:27.034Z,74.88
2023-03-28T10:14:27.031Z,81.65
2023-03-28T10:15:27.148Z,87.20
2023-03-28T10:16:27.158Z,98.57
2023-03-28T10:17:27.186Z,110.27
2023-03-28T10:18:27.147Z,118.21
2023-03-28T10:19:27.135Z,122.57
2023-03-28T10:20:27.370Z,127.42
2023-03-28T10:21:27.166Z,97.21
2023-03-28T10:22:27.218Z,26.25
2023-03-28T10:23:27.204Z,0.00
2023-03-28T10:24:27.254Z,0.00
2023-03-28T10:25:27.375Z,38.92
2023-03-28T10:26:27.319Z,63.86
2023-03-28T10:27:27.352Z,80.39
2023-03-28T10:28:27.397Z,83.36
2023-03-28T10:29:27.476Z,95.23
2023-03-28T10:30:27.542Z,110.39
2023-03-28T10:31:27.603Z,127.35
2023-03-28T10:32:27.703Z,154.76
2023-03-28T10:33:27.661Z,162.11
2023-03-28T10:34:27.700Z,175.43
2023-03-28T10:35:28.005Z,175.82
2023-03-28T10:36:27.732Z,172.75
2023-03-28T10:37:27.761Z,168.92
2023-03-28T10:38:27.743Z,183.07
2023-03-28T10:39:27.730Z,187.17
2023-03-28T10:40:27.756Z,193.83
2023-03-28T10:41:27.740Z,194.30
2023-03-28T10:42:27.787Z,191.54
2023-03-28T10:43:27.802Z,200.50
2023-03-28T10:44:27.850Z,206.99
2023-03-28T10:45:27.839Z,207.19
2023-03-28T10:46:27.942Z,209.46
2023-03-28T10:47:27.910Z,200.81
2023-03-28T10:48:27.957Z,196.78
2023-03-28T10:49:27.993Z,199.61
2023-03-28T10:50:28.063Z,206.59
2023-03-28T10:51:28.100Z,196.59
2023-03-28T10:52:28.374Z,202.89
2023-03-28T10:53:28.253Z,214.81
2023-03-28T10:54:28.301Z,211.18
2023-03-28T10:55:28.377Z,211.43
2023-03-28T10:56:28.446Z,224.48
2023-03-28T10:57:28.522Z,227.33
2023-03-28T10:58:28.562Z,225.00
2023-03-28T10:59:28.608Z,226.14
2023-03-28T11:00:28.679Z,218.61
2023-03-28T11:01:30.739Z,213.81
2023-03-28T11:02:28.811Z,214.01
2023-03-28T11:03:28.801Z,215.07
2023-03-28T11:04:28.748Z,218.16
2023-03-28T11:05:28.743Z,225.05
2023-03-28T11:06:28.736Z,232.98
2023-03-28T11:07:30.823Z,230.00
2023-03-28T11:08:28.694Z,228.34
2023-03-28T11:09:28.696Z,221.60
2023-03-28T11:10:28.760Z,228.56
2023-03-28T11:11:28.821Z,224.24
2023-03-28T11:12:32.320Z,229.04
2023-03-28T11:13:29.886Z,228.37
2023-03-28T11:14:28.859Z,222.97
2023-03-28T11:15:28.874Z,201.26
2023-03-28T11:16:28.913Z,186.07
2023-03-28T11:17:28.907Z,182.48
2023-03-28T11:18:30.177Z,185.36
2023-03-28T11:19:28.885Z,190.47
2023-03-28T11:20:28.816Z,194.43
2023-03-28T11:21:28.827Z,207.34
2023-03-28T11:22:28.888Z,205.26
2023-03-28T11:23:28.960Z,205.77
2023-03-28T11:24:29.052Z,201.07
2023-03-28T11:25:29.092Z,193.50
2023-03-28T11:26:29.146Z,197.92
2023-03-28T11:27:29.228Z,206.65
2023-03-28T11:28:29.263Z,209.75
2023-03-28T11:29:42.104Z,214.90
2023-03-28T11:30:30.304Z,207.15
2023-03-28T11:31:29.338Z,199.42
2023-03-28T11:32:29.354Z,190.43
2023-03-28T11:33:29.288Z,198.47
2023-03-28T11:34:29.277Z,199.82
2023-03-28T11:35:29.403Z,196.74
2023-03-28T11:36:29.266Z,200.30
2023-03-28T11:37:29.254Z,204.50
2023-03-28T11:38:29.296Z,192.06
2023-03-28T11:39:29.252Z,190.27
2023-03-28T11:40:29.272Z,179.47
2023-03-28T11:41:29.224Z,186.05
2023-03-28T11:42:29.264Z,177.41
2023-03-28T11:43:29.259Z,185.14
2023-03-28T11:44:29.309Z,189.79
2023-03-28T11:45:46.607Z,193.82
2023-03-28T11:46:30.422Z,189.95
2023-03-28T11:47:29.354Z,193.57
2023-03-28T11:48:29.323Z,189.24
2023-03-28T11:49:29.303Z,188.14
2023-03-28T11:50:29.312Z,193.11
2023-03-28T11:51:29.280Z,198.82
2023-03-28T11:52:29.279Z,181.27
2023-03-28T11:53:29.273Z,160.94
2023-03-28T11:54:29.271Z,151.90
2023-03-28T11:55:29.293Z,167.09
2023-03-28T11:56:29.322Z,174.20
2023-03-28T11:57:29.347Z,186.11
2023-03-28T11:58:29.417Z,188.56
2023-03-28T11:59:29.460Z,169.97
2023-03-28T12:00:33.924Z,170.39
2023-03-28T12:01:30.581Z,141.92
2023-03-28T12:02:29.591Z,144.80
2023-03-28T12:03:29.570Z,146.11
2023-03-28T12:04:29.578Z,151.95
2023-03-28T12:05:29.449Z,166.09
2023-03-28T12:06:29.462Z,163.64
2023-03-28T12:07:29.434Z,168.65
2023-03-28T12:08:29.446Z,180.30
2023-03-28T12:09:29.449Z,172.09
2023-03-28T12:10:29.415Z,161.65
2023-03-28T12:11:29.447Z,160.13
2023-03-28T12:12:29.422Z,171.74
2023-03-28T12:13:29.440Z,172.63
2023-03-28T12:14:29.500Z,168.03
2023-03-28T12:15:29.924Z,167.02
2023-03-28T12:16:29.969Z,162.97
2023-03-28T12:17:29.666Z,164.20
2023-03-28T12:18:29.671Z,166.29
2023-03-28T12:19:29.734Z,167.33
2023-03-28T12:20:29.750Z,168.37
2023-03-28T12:21:29.950Z,169.52
2023-03-28T12:22:29.828Z,171.45
2023-03-28T12:23:29.865Z,169.41
2023-03-28T12:24:29.871Z,168.34
2023-03-28T12:25:29.880Z,167.32
2023-03-28T12:26:29.903Z,169.12
2023-03-28T12:27:29.931Z,166.80
2023-03-28T12:28:29.956Z,166.15
2023-03-28T12:29:29.992Z,166.93
2023-03-28T12:30:30.094Z,165.56
2023-03-28T12:31:30.057Z,164.37
2023-03-28T12:32:30.061Z,165.36
2023-03-28T12:33:30.027Z,164.14
2023-03-28T12:34:30.029Z,162.03
2023-03-28T12:35:30.078Z,161.81
2023-03-28T12:36:30.066Z,160.91
2023-03-28T12:37:30.098Z,159.39
2023-03-28T12:38:30.094Z,157.57
2023-03-28T12:39:30.107Z,155.63